createdAt,value
2023-05-15T00:00:58.491Z,11.30
2023-05-15T00:03:26.257Z,10.90
2023-05-15T00:05:53.175Z,11.10
2023-05-15T00:08:20.103Z,11.30
2023-05-15T00:10:57.433Z,11.30
2023-05-15T00:13:28.190Z,10.50
2023-05-15T00:15:55.369Z,10.00
2023-05-15T00:18:22.421Z,11.20
2023-05-15T00:20:49.565Z,11.10
2023-05-15T00:23:16.375Z,12.10
2023-05-15T00:25:43.357Z,11.10
2023-05-15T00:28:10.301Z,11.40
2023-05-15T00:30:37.352Z,11.40
2023-05-15T00:33:04.352Z,11.30
2023-05-15T00:35:32.382Z,11.20
2023-05-15T00:37:59.320Z,11.80
2023-05-15T00:40:26.264Z,10.90
2023-05-15T00:42:53.327Z,11.40
2023-05-15T00:45:20.394Z,11.20
2023-05-15T00:47:47.466Z,12.10
2023-05-15T00:50:14.458Z,11.90
2023-05-15T00:52:41.378Z,11.20
2023-05-15T00:55:09.086Z,11.40
2023-05-15T00:57:35.976Z,11.30
2023-05-15T01:00:10.507Z,12.60
2023-05-15T01:02:38.107Z,11.20
2023-05-15T01:05:07.700Z,11.00
2023-05-15T01:07:36.114Z,11.00
2023-05-15T01:10:04.440Z,10.90
2023-05-15T01:12:32.226Z,10.80
2023-05-15T01:14:59.044Z,11.70
2023-05-15T01:17:26.178Z,10.40
2023-05-15T01:19:54.221Z,11.10
2023-05-15T01:22:30.820Z,11.70
2023-05-15T01:25:16.357Z,12.40
2023-05-15T01:28:33.681Z,11.80
2023-05-15T01:31:14.442Z,11.40
2023-05-15T01:33:43.199Z,11.80
2023-05-15T01:36:31.582Z,11.20
2023-05-15T01:38:59.905Z,11.50
2023-05-15T01:41:31.735Z,12.10
2023-05-15T01:44:20.384Z,12.30
2023-05-15T01:46:50.539Z,11.70
2023-05-15T01:49:18.989Z,11.90
2023-05-15T01:51:47.392Z,12.50
2023-05-15T01:54:14.767Z,11.80
2023-05-15T01:56:42.117Z,10.90
2023-05-15T01:59:09.021Z,10.80
2023-05-15T02:01:35.913Z,11.80
2023-05-15T02:04:02.823Z,11.90
2023-05-15T02:06:31.312Z,12.00
2023-05-15T02:08:58.117Z,11.10
2023-05-15T02:11:25.059Z,12.70
2023-05-15T02:13:52.409Z,11.50
2023-05-15T02:16:19.645Z,11.90
2023-05-15T02:18:46.898Z,10.10
2023-05-15T02:21:14.363Z,11.20
2023-05-15T02:23:42.462Z,11.10
2023-05-15T02:26:21.666Z,12.20
2023-05-15T02:29:00.902Z,12.50
2023-05-15T02:32:06.114Z,12.90
2023-05-15T02:34:52.678Z,11.80
2023-05-15T02:37:24.948Z,13.20
2023-05-15T02:39:54.572Z,11.70
2023-05-15T02:42:21.526Z,13.00
2023-05-15T02:44:48.871Z,11.80
2023-05-15T02:47:15.927Z,13.00
2023-05-15T02:49:42.945Z,12.70
2023-05-15T02:52:10.198Z,12.60
2023-05-15T02:54:37.042Z,12.40
2023-05-15T02:57:04.945Z,12.70
2023-05-15T02:59:32.263Z,13.40
2023-05-15T03:01:59.212Z,12.80
2023-05-15T03:04:26.045Z,13.20
2023-05-15T03:06:53.100Z,12.70
2023-05-15T03:09:20.467Z,12.40
2023-05-15T03:11:47.524Z,13.50
2023-05-15T03:14:14.835Z,13.20
2023-05-15T03:16:42.318Z,13.40
2023-05-15T03:19:09.591Z,13.70
2023-05-15T03:21:36.537Z,12.70
2023-05-15T03:24:03.466Z,13.60
2023-05-15T03:26:30.308Z,12.90
2023-05-15T03:28:57.987Z,12.90
2023-05-15T03:31:25.137Z,14.00
2023-05-15T03:33:52.002Z,11.30
2023-05-15T03:36:18.884Z,12.80
2023-05-15T03:38:45.746Z,12.10
2023-05-15T03:41:12.676Z,12.60
2023-05-15T03:43:39.670Z,13.60
2023-05-15T03:46:06.620Z,13.70
2023-05-15T03:48:33.502Z,13.40
2023-05-15T03:51:00.546Z,14.00
2023-05-15T03:53:30.909Z,12.80
2023-05-15T03:55:58.101Z,12.90
2023-05-15T03:58:26.331Z,12.00
2023-05-15T04:00:53.394Z,13.00
2023-05-15T04:03:20.674Z,12.90
2023-05-15T04:05:50.366Z,13.70
2023-05-15T04:08:17.247Z,13.30
2023-05-15T04:10:44.055Z,13.90
2023-05-15T04:13:10.941Z,13.30
2023-05-15T04:15:37.863Z,12.80
2023-05-15T04:18:04.936Z,13.00
2023-05-15T04:20:33.828Z,14.00
2023-05-15T04:23:35.216Z,12.60
2023-05-15T04:26:05.445Z,12.00
2023-05-15T04:28:32.684Z,12.70
2023-05-15T04:30:59.633Z,12.80
2023-05-15T04:33:26.683Z,13.20
2023-05-15T04:35:53.625Z,13.00
2023-05-15T04:38:20.408Z,13.40
2023-05-15T04:40:47.524Z,12.40
2023-05-15T04:43:14.574Z,13.00
2023-05-15T04:45:41.480Z,12.60
2023-05-15T04:48:08.625Z,13.00
2023-05-15T04:50:37.045Z,12.20
2023-05-15T04:53:03.916Z,13.40
2023-05-15T04:55:35.616Z,14.10
2023-05-15T04:58:02.588Z,12.60
2023-05-15T05:00:29.572Z,12.30
2023-05-15T05:02:56.663Z,11.40
2023-05-15T05:05:23.896Z,12.10
2023-05-15T05:07:52.220Z,11.70
2023-05-15T05:10:19.366Z,11.30
2023-05-15T05:12:46.367Z,11.60
2023-05-15T05:15:13.259Z,12.60
2023-05-15T05:17:40.468Z,11.70
2023-05-15T05:20:12.940Z,11.40
2023-05-15T05:22:40.942Z,11.10
2023-05-15T05:25:08.306Z,11.10
2023-05-15T05:27:35.256Z,10.90
2023-05-15T05:30:02.364Z,11.10
2023-05-15T05:32:29.420Z,9.80
2023-05-15T05:34:56.410Z,10.60
2023-05-15T05:37:23.633Z,10.20
2023-05-15T05:39:50.606Z,9.50
2023-05-15T05:42:28.947Z,10.10
2023-05-15T05:44:55.960Z,9.70
2023-05-15T05:48:14.997Z,10.30
2023-05-15T05:50:45.148Z,11.10
2023-05-15T05:53:12.203Z,9.60
2023-05-15T05:55:39.138Z,8.50
2023-05-15T05:58:14.558Z,9.60
2023-05-15T06:00:45.217Z,9.70
2023-05-15T06:03:18.374Z,9.20
2023-05-15T06:05:51.313Z,10.10
2023-05-15T06:08:18.587Z,9.40
2023-05-15T06:10:48.562Z,9.30
2023-05-15T06:13:21.244Z,8.10
2023-05-15T06:15:48.195Z,8.30
2023-05-15T06:18:15.165Z,8.90
2023-05-15T06:20:45.378Z,7.30
2023-05-15T06:23:12.693Z,7.80
2023-05-15T06:25:46.847Z,7.40
2023-05-15T06:28:17.467Z,6.60
2023-05-15T06:30:51.119Z,6.30
2023-05-15T06:33:20.274Z,6.30
2023-05-15T06:35:49.511Z,6.80
2023-05-15T06:38:17.129Z,7.10
2023-05-15T06:40:44.128Z,6.50
2023-05-15T06:43:11.227Z,6.30
2023-05-15T06:45:44.623Z,6.00
2023-05-15T06:48:12.333Z,6.80
2023-05-15T06:54:29.836Z,7.20
2023-05-15T06:57:02.714Z,6.70
2023-05-15T06:59:29.690Z,7.10
2023-05-15T07:01:56.589Z,5.80
2023-05-15T07:04:23.553Z,5.60
2023-05-15T07:07:25.686Z,4.40
2023-05-15T07:09:52.635Z,5.40
2023-05-15T07:12:19.659Z,4.50
2023-05-15T07:14:46.558Z,4.40
2023-05-15T07:17:14.381Z,4.20
2023-05-15T07:20:06.912Z,4.70
2023-05-15T07:22:41.531Z,5.20
2023-05-15T07:25:57.365Z,3.60
2023-05-15T07:31:02.842Z,3.50
2023-05-15T07:33:30.243Z,3.40
2023-05-15T07:35:57.050Z,3.60
2023-05-15T07:38:24.338Z,3.70
2023-05-15T07:40:51.663Z,3.60
2023-05-15T07:43:28.145Z,3.50
2023-05-15T07:45:58.198Z,3.60
2023-05-15T07:48:29.087Z,3.80
2023-05-15T07:51:17.823Z,3.60
2023-05-15T07:54:04.909Z,3.80
2023-05-15T07:56:32.643Z,3.50
2023-05-15T07:59:02.296Z,3.80
2023-05-15T08:01:30.767Z,3.40
2023-05-15T08:03:59.655Z,3.30
2023-05-15T08:06:26.523Z,3.80
2023-05-15T08:08:53.731Z,3.30
2023-05-15T08:11:21.721Z,3.80
2023-05-15T08:13:48.696Z,3.40
2023-05-15T08:16:15.901Z,4.00
2023-05-15T08:18:42.816Z,3.80
2023-05-15T08:21:10.088Z,4.20
2023-05-15T08:23:37.145Z,4.10
2023-05-15T08:26:04.042Z,4.00
2023-05-15T08:28:31.163Z,4.40
2023-05-15T08:30:58.121Z,4.10
2023-05-15T08:33:25.081Z,4.20
2023-05-15T08:35:52.684Z,4.00
2023-05-15T08:38:19.613Z,4.10
2023-05-15T08:40:47.284Z,3.70
2023-05-15T08:43:16.820Z,4.10
2023-05-15T08:45:44.034Z,3.90
2023-05-15T08:48:14.049Z,4.30
2023-05-15T08:50:41.219Z,4.00
2023-05-15T08:53:08.344Z,3.80
2023-05-15T08:55:35.192Z,3.50
2023-05-15T08:58:02.028Z,3.70
2023-05-15T09:00:29.068Z,3.90
2023-05-15T09:02:59.714Z,3.40
2023-05-15T09:05:27.545Z,4.20
2023-05-15T09:07:57.348Z,3.90
2023-05-15T09:10:24.245Z,3.60
2023-05-15T09:12:52.020Z,3.30
2023-05-15T09:15:22.228Z,2.80
2023-05-15T09:17:49.706Z,3.10
2023-05-15T09:20:35.613Z,3.20
2023-05-15T09:23:03.783Z,2.80
2023-05-15T09:25:44.843Z,2.90
2023-05-15T09:28:25.681Z,2.70
2023-05-15T09:30:57.566Z,2.70
2023-05-15T09:33:31.885Z,2.80
2023-05-15T09:35:59.174Z,2.70
2023-05-15T09:38:26.005Z,3.10
2023-05-15T09:41:08.140Z,2.90
2023-05-15T09:43:39.026Z,2.80
2023-05-15T09:46:06.597Z,2.90
2023-05-15T09:48:34.723Z,2.80
2023-05-15T09:51:02.357Z,2.60
2023-05-15T09:53:29.282Z,2.70
2023-05-15T09:55:56.409Z,3.00
2023-05-15T09:58:23.593Z,3.00
2023-05-15T10:00:50.688Z,3.00
2023-05-15T10:03:21.165Z,3.30
2023-05-15T10:05:48.337Z,2.90
2023-05-15T10:08:16.368Z,2.60
2023-05-15T10:10:43.884Z,2.60
2023-05-15T10:13:11.176Z,2.70
2023-05-15T10:15:38.112Z,2.50
2023-05-15T10:18:05.244Z,2.40
2023-05-15T10:20:35.685Z,2.80
2023-05-15T10:23:04.536Z,2.60
2023-05-15T10:25:40.797Z,2.80
2023-05-15T10:28:11.730Z,2.40
2023-05-15T10:30:38.896Z,2.70
2023-05-15T10:33:06.870Z,3.10
2023-05-15T10:35:39.272Z,2.70
2023-05-15T10:38:06.653Z,2.90
2023-05-15T10:40:33.978Z,3.20
2023-05-15T10:43:01.803Z,2.90
2023-05-15T10:45:29.460Z,3.30
2023-05-15T10:47:56.432Z,3.60
2023-05-15T10:50:23.467Z,2.70
2023-05-15T10:52:53.623Z,2.80
2023-05-15T10:55:20.557Z,3.00
2023-05-15T10:57:47.748Z,3.50
2023-05-15T11:00:24.236Z,3.00
2023-05-15T11:02:54.030Z,3.10
2023-05-15T11:05:21.109Z,3.30
2023-05-15T11:08:18.464Z,3.10
2023-05-15T11:10:45.267Z,3.60
2023-05-15T11:13:12.214Z,3.10
2023-05-15T11:15:43.571Z,3.10
2023-05-15T11:18:10.768Z,3.70
2023-05-15T11:20:43.108Z,3.00
2023-05-15T11:23:10.066Z,3.30
2023-05-15T11:25:37.415Z,3.50
2023-05-15T11:28:04.649Z,3.70
2023-05-15T11:30:41.463Z,2.80
2023-05-15T11:33:10.530Z,3.10
2023-05-15T11:35:37.709Z,3.60
2023-05-15T11:38:11.573Z,3.20
2023-05-15T11:40:52.725Z,3.30
2023-05-15T11:43:26.627Z,3.10
2023-05-15T11:46:03.173Z,3.30
2023-05-15T11:48:39.538Z,3.20
2023-05-15T11:51:08.517Z,2.90
2023-05-15T11:53:35.522Z,3.40
2023-05-15T11:56:02.493Z,2.90
2023-05-15T11:58:29.315Z,2.90
2023-05-15T12:00:56.497Z,2.90
2023-05-15T12:03:28.202Z,3.40
2023-05-15T12:05:59.616Z,3.00
2023-05-15T12:08:34.075Z,2.90
2023-05-15T12:11:01.266Z,3.10
2023-05-15T12:13:28.341Z,2.50
2023-05-15T12:15:55.812Z,2.70
2023-05-15T12:18:23.398Z,2.80
2023-05-15T12:20:51.977Z,2.90
2023-05-15T12:23:21.086Z,2.50
2023-05-15T12:25:48.067Z,3.60
2023-05-15T12:28:15.066Z,2.90
2023-05-15T12:30:42.336Z,2.80
2023-05-15T12:33:10.318Z,2.80
2023-05-15T12:35:38.259Z,2.80
2023-05-15T12:38:05.892Z,2.30
2023-05-15T12:40:36.871Z,2.80
2023-05-15T12:43:07.421Z,3.00
2023-05-15T12:45:36.372Z,3.10
2023-05-15T12:48:03.729Z,2.90
2023-05-15T12:50:32.583Z,2.40
2023-05-15T12:53:01.469Z,2.50
2023-05-15T12:55:38.099Z,2.60
2023-05-15T12:58:12.233Z,2.80
2023-05-15T13:00:40.673Z,2.80
2023-05-15T13:03:13.527Z,2.80
2023-05-15T13:05:47.279Z,2.50
2023-05-15T13:08:48.138Z,2.20
2023-05-15T13:11:15.141Z,2.80
2023-05-15T13:13:51.544Z,3.10
2023-05-15T13:16:22.478Z,2.80
2023-05-15T13:18:49.474Z,2.40
2023-05-15T13:21:16.608Z,2.80
2023-05-15T13:23:43.804Z,2.60
2023-05-15T13:26:16.418Z,2.60
2023-05-15T13:28:47.039Z,2.60
2023-05-15T13:31:20.116Z,2.20
2023-05-15T13:33:49.770Z,3.00
2023-05-15T13:36:16.569Z,2.70
2023-05-15T13:38:43.377Z,2.80
2023-05-15T13:41:10.375Z,2.50
2023-05-15T13:43:37.221Z,3.00
2023-05-15T13:46:04.682Z,2.70
2023-05-15T13:48:32.078Z,2.60
2023-05-15T13:50:58.862Z,2.30
2023-05-15T13:53:25.767Z,2.20
2023-05-15T13:55:53.115Z,2.70
2023-05-15T13:58:20.028Z,2.30
2023-05-15T14:00:47.318Z,2.60
2023-05-15T14:03:15.214Z,2.40
2023-05-15T14:05:42.445Z,2.20
2023-05-15T14:08:09.476Z,2.40
2023-05-15T14:10:37.410Z,2.50
2023-05-15T14:13:04.472Z,2.30
2023-05-15T14:15:34.424Z,2.30
2023-05-15T14:25:37.812Z,2.30
2023-05-15T14:28:05.109Z,2.10
2023-05-15T14:30:32.010Z,2.50
2023-05-15T14:33:00.314Z,2.00
2023-05-15T14:35:27.236Z,2.20
2023-05-15T14:37:54.156Z,2.00
2023-05-15T14:40:22.364Z,2.10
2023-05-15T14:42:51.953Z,2.00
2023-05-15T14:45:18.901Z,2.20
2023-05-15T14:47:45.984Z,2.30
2023-05-15T14:50:12.854Z,2.30
2023-05-15T14:52:39.936Z,1.80
2023-05-15T14:55:09.167Z,2.00
2023-05-15T14:57:37.730Z,2.50
2023-05-15T15:00:06.753Z,2.00
2023-05-15T15:02:36.579Z,2.10
2023-05-15T15:05:04.672Z,2.00
2023-05-15T15:07:31.736Z,2.30
2023-05-15T15:10:23.777Z,2.40
2023-05-15T15:12:54.049Z,2.70
2023-05-15T15:15:21.047Z,3.30
2023-05-15T15:17:48.029Z,2.70
2023-05-15T15:20:16.101Z,3.30
2023-05-15T15:22:42.963Z,2.60
2023-05-15T15:25:22.330Z,2.90
2023-05-15T15:27:49.334Z,2.30
2023-05-15T15:30:16.458Z,2.20
2023-05-15T15:32:44.657Z,2.40
2023-05-15T15:35:11.814Z,2.00
2023-05-15T15:37:39.154Z,2.50
2023-05-15T15:40:08.201Z,2.40
2023-05-15T15:42:35.089Z,2.00
2023-05-15T15:45:02.014Z,2.20
2023-05-15T15:47:32.401Z,2.50
2023-05-15T15:49:59.809Z,1.80
2023-05-15T15:52:26.956Z,2.50
2023-05-15T15:54:53.992Z,2.90
2023-05-15T15:57:21.362Z,2.70
2023-05-15T15:59:49.426Z,3.00
2023-05-15T16:02:16.874Z,2.80
2023-05-15T16:04:47.743Z,2.90
2023-05-15T16:07:17.641Z,3.00
2023-05-15T16:10:00.230Z,3.30
2023-05-15T16:12:46.752Z,2.90
2023-05-15T16:15:23.279Z,3.10
2023-05-15T16:20:54.350Z,3.10
2023-05-15T16:23:22.816Z,2.60
2023-05-15T16:25:49.653Z,3.10
2023-05-15T16:28:16.604Z,2.50
2023-05-15T16:30:49.427Z,3.50
2023-05-15T16:33:20.063Z,3.50
2023-05-15T16:35:47.388Z,3.10
2023-05-15T16:38:14.725Z,3.20
2023-05-15T16:40:41.670Z,3.00
2023-05-15T16:43:08.544Z,3.20
2023-05-15T16:45:35.471Z,3.90
2023-05-15T16:48:02.489Z,4.50
2023-05-15T16:50:35.003Z,4.10
2023-05-15T16:53:02.566Z,5.70
2023-05-15T16:55:29.591Z,6.50
2023-05-15T16:57:56.525Z,6.10
2023-05-15T17:00:23.538Z,5.90
2023-05-15T17:03:37.399Z,5.20
2023-05-15T17:06:05.257Z,4.30
2023-05-15T17:08:32.865Z,4.30
2023-05-15T17:10:59.714Z,4.40
2023-05-15T17:13:27.735Z,4.00
2023-05-15T17:16:01.270Z,3.70
2023-05-15T17:18:34.898Z,4.00
2023-05-15T17:21:08.471Z,5.40
2023-05-15T17:23:35.717Z,4.50
2023-05-15T17:26:04.282Z,3.90
2023-05-15T17:28:31.482Z,3.30
2023-05-15T17:30:58.399Z,3.20
2023-05-15T17:33:25.763Z,2.80
2023-05-15T17:35:53.982Z,3.60
2023-05-15T17:38:24.479Z,3.30
2023-05-15T17:41:19.776Z,4.50
2023-05-15T17:43:46.664Z,3.40
2023-05-15T17:46:19.563Z,3.10
2023-05-15T17:48:46.589Z,3.10
2023-05-15T17:51:13.509Z,3.40
2023-05-15T17:53:40.381Z,3.70
2023-05-15T17:56:07.382Z,4.80
2023-05-15T17:58:34.258Z,5.90
2023-05-15T18:01:01.419Z,5.00
2023-05-15T18:03:28.510Z,5.00
2023-05-15T18:05:55.607Z,4.20
2023-05-15T18:08:22.630Z,3.90
2023-05-15T18:10:49.753Z,4.30
2023-05-15T18:13:17.181Z,3.60
2023-05-15T18:15:44.269Z,3.70
2023-05-15T18:18:11.393Z,3.20
2023-05-15T18:20:38.430Z,3.30
2023-05-15T18:23:05.653Z,3.30
2023-05-15T18:25:36.926Z,3.30
2023-05-15T18:28:04.715Z,3.10
2023-05-15T18:30:31.580Z,3.50
2023-05-15T18:32:58.458Z,2.90
2023-05-15T18:35:25.482Z,2.90
2023-05-15T18:37:52.431Z,3.40
2023-05-15T18:40:19.503Z,3.20
2023-05-15T18:42:46.709Z,3.60
2023-05-15T18:45:13.741Z,3.00
2023-05-15T18:47:40.625Z,3.00
2023-05-15T18:50:08.276Z,3.20
2023-05-15T18:52:35.099Z,2.70
2023-05-15T18:55:02.078Z,3.20
2023-05-15T18:57:29.023Z,2.70
2023-05-15T18:59:56.010Z,2.90
2023-05-15T19:02:24.574Z,3.00
2023-05-15T19:04:53.163Z,2.90
2023-05-15T19:07:20.053Z,3.20
2023-05-15T19:09:46.928Z,3.00
2023-05-15T19:12:13.852Z,3.30
2023-05-15T19:14:40.669Z,3.10
2023-05-15T19:17:07.546Z,3.80
2023-05-15T19:19:34.382Z,3.30
2023-05-15T19:22:01.317Z,3.90
2023-05-15T19:24:28.150Z,3.30
2023-05-15T19:26:55.247Z,3.50
2023-05-15T19:29:22.249Z,3.10
2023-05-15T19:31:49.783Z,3.20
2023-05-15T19:34:16.770Z,3.70
2023-05-15T19:36:45.952Z,3.80
2023-05-15T19:39:12.984Z,3.30
2023-05-15T19:41:39.826Z,3.90
2023-05-15T19:44:08.265Z,3.80
2023-05-15T19:59:40.276Z,3.60
2023-05-15T20:02:09.782Z,4.10
2023-05-15T20:04:37.081Z,3.70
2023-05-15T20:07:04.020Z,4.10
2023-05-15T20:09:30.771Z,3.80
2023-05-15T20:11:57.698Z,4.10
2023-05-15T20:14:24.370Z,3.90
2023-05-15T20:16:50.979Z,3.90
2023-05-15T20:19:21.306Z,4.20
2023-05-15T20:21:48.179Z,3.60
2023-05-15T20:24:16.648Z,3.70
2023-05-15T20:26:43.848Z,4.40
2023-05-15T20:29:10.778Z,4.30
2023-05-15T20:31:39.546Z,3.50
2023-05-15T20:34:07.579Z,4.10
2023-05-15T20:36:38.236Z,4.30
2023-05-15T20:39:05.361Z,4.30
2023-05-15T20:41:33.135Z,4.60
2023-05-15T20:43:59.961Z,4.40
2023-05-15T20:46:29.693Z,4.40
2023-05-15T20:48:57.017Z,4.30
2023-05-15T20:51:24.012Z,4.70
2023-05-15T20:53:50.700Z,4.00
2023-05-15T20:56:17.380Z,3.70
2023-05-15T20:58:44.154Z,3.80
2023-05-15T21:01:10.893Z,3.80
2023-05-15T21:03:37.902Z,3.40
2023-05-15T21:06:04.984Z,3.50
2023-05-15T21:08:32.963Z,3.70
2023-05-15T21:11:00.398Z,3.90
2023-05-15T21:13:27.561Z,3.60
2023-05-15T21:15:54.185Z,3.50
2023-05-15T21:18:22.436Z,3.60
2023-05-15T21:20:49.093Z,3.00
2023-05-15T21:23:16.078Z,3.50
2023-05-15T21:25:42.928Z,3.60
2023-05-15T21:28:09.701Z,3.90
2023-05-15T21:30:36.535Z,3.40
2023-05-15T21:33:03.355Z,3.20
2023-05-15T21:35:31.185Z,3.80
2023-05-15T21:37:58.806Z,4.00
2023-05-15T21:40:25.871Z,3.20
2023-05-15T21:42:52.789Z,3.40
2023-05-15T21:45:20.038Z,4.10
2023-05-15T21:47:46.672Z,4.50
2023-05-15T21:50:13.794Z,3.30
2023-05-15T21:52:40.512Z,4.00
2023-05-15T21:55:07.625Z,3.10
2023-05-15T21:57:34.521Z,3.60
2023-05-15T22:00:01.698Z,3.50
2023-05-15T22:02:28.831Z,3.50
2023-05-15T22:04:55.628Z,3.40
2023-05-15T22:07:22.293Z,4.00
2023-05-15T22:09:49.077Z,3.10
2023-05-15T22:12:15.956Z,3.90
2023-05-15T22:14:54.645Z,3.50
2023-05-15T22:17:26.500Z,3.50
2023-05-15T22:19:53.401Z,3.70
2023-05-15T22:22:20.225Z,4.00
2023-05-15T22:24:47.350Z,3.50
2023-05-15T22:27:15.942Z,3.50
2023-05-15T22:29:42.718Z,3.90
2023-05-15T22:32:09.524Z,3.90
2023-05-15T22:34:36.348Z,4.00
2023-05-15T22:37:03.124Z,3.10
2023-05-15T22:39:30.274Z,4.10
2023-05-15T22:41:57.191Z,3.80
2023-05-15T22:44:23.894Z,3.50
2023-05-15T22:46:50.772Z,3.70
2023-05-15T22:49:24.621Z,4.40
2023-05-15T22:51:52.779Z,3.80
2023-05-15T22:54:23.151Z,3.40
2023-05-15T22:56:51.231Z,3.30
2023-05-15T22:59:18.041Z,3.60
2023-05-15T23:01:45.785Z,3.70
2023-05-15T23:04:12.692Z,3.70
2023-05-15T23:06:40.455Z,3.40
2023-05-15T23:09:10.045Z,4.20
2023-05-15T23:11:37.339Z,3.70
2023-05-15T23:14:04.387Z,3.70
2023-05-15T23:16:31.233Z,3.50
2023-05-15T23:18:58.302Z,3.90
2023-05-15T23:21:25.176Z,3.70
2023-05-15T23:23:52.009Z,3.70
2023-05-15T23:26:18.811Z,3.20
2023-05-15T23:28:45.552Z,3.70
2023-05-15T23:31:13.329Z,4.10
2023-05-15T23:33:40.518Z,4.30
2023-05-15T23:36:07.436Z,4.10
2023-05-15T23:38:34.360Z,4.00
2023-05-15T23:41:01.402Z,4.10
2023-05-15T23:43:28.361Z,4.10
2023-05-15T23:45:55.336Z,4.10
2023-05-15T23:48:22.047Z,3.70
2023-05-15T23:50:48.987Z,4.00
2023-05-15T23:53:15.725Z,3.80
2023-05-15T23:55:42.454Z,3.90
2023-05-15T23:58:09.206Z,4.00
